createdAt,value
2018-12-23T00:01:57.394Z,1.10
2018-12-23T00:06:01.393Z,1.07
2018-12-23T00:10:05.151Z,1.00
2018-12-23T00:14:08.735Z,0.90
2018-12-23T00:18:12.263Z,1.00
2018-12-23T00:22:15.822Z,0.90
2018-12-23T00:26:19.368Z,1.10
2018-12-23T00:30:23.213Z,0.90
2018-12-23T00:34:26.680Z,0.97
2018-12-23T00:38:30.231Z,0.90
2018-12-23T00:42:33.729Z,0.90
2018-12-23T00:46:37.215Z,1.07
2018-12-23T00:50:40.848Z,0.90
2018-12-23T00:54:44.440Z,1.07
2018-12-23T00:58:48.104Z,1.00
2018-12-23T01:02:51.719Z,0.90
2018-12-23T01:06:55.296Z,0.80
2018-12-23T01:10:58.795Z,0.90
2018-12-23T01:15:02.256Z,1.00
2018-12-23T01:19:05.860Z,1.00
2018-12-23T01:23:09.304Z,0.87
2018-12-23T01:27:12.885Z,1.13
2018-12-23T01:31:16.347Z,0.97
2018-12-23T01:35:19.868Z,0.80
2018-12-23T01:39:23.479Z,1.10
2018-12-23T01:43:27.054Z,1.00
2018-12-23T01:47:30.531Z,1.00
2018-12-23T01:51:34.008Z,0.97
2018-12-23T01:55:37.497Z,1.43
2018-12-23T01:59:41.006Z,1.20
2018-12-23T02:03:44.722Z,1.17
2018-12-23T02:07:48.213Z,1.03
2018-12-23T02:11:51.700Z,0.90
2018-12-23T02:15:55.215Z,1.03
2018-12-23T02:19:58.875Z,1.10
2018-12-23T02:24:02.370Z,1.20
2018-12-23T02:28:05.856Z,1.00
2018-12-23T02:32:09.500Z,0.93
2018-12-23T02:36:12.962Z,0.97
2018-12-23T02:40:16.551Z,1.27
2018-12-23T02:44:20.656Z,1.10
2018-12-23T02:48:24.367Z,1.00
2018-12-23T02:52:27.974Z,1.03
2018-12-23T02:56:31.633Z,0.97
2018-12-23T03:00:35.102Z,0.90
2018-12-23T03:04:38.598Z,1.27
2018-12-23T03:08:42.260Z,0.80
2018-12-23T03:12:45.974Z,1.00
2018-12-23T03:16:49.518Z,1.00
2018-12-23T03:20:53.032Z,1.13
2018-12-23T03:24:56.520Z,0.90
2018-12-23T03:29:00.005Z,1.10
2018-12-23T03:33:03.577Z,1.20
2018-12-23T03:37:07.036Z,0.90
2018-12-23T03:41:10.564Z,1.00
2018-12-23T03:45:14.014Z,1.13
2018-12-23T03:49:17.943Z,1.10
2018-12-23T03:53:21.516Z,1.03
2018-12-23T03:57:25.092Z,1.17
2018-12-23T04:01:28.547Z,0.90
2018-12-23T04:05:32.190Z,1.10
2018-12-23T04:09:35.737Z,1.33
2018-12-23T04:13:39.170Z,1.00
2018-12-23T04:17:42.624Z,1.20
2018-12-23T04:22:33.759Z,1.10
2018-12-23T04:26:38.466Z,1.30
2018-12-23T04:30:43.207Z,1.43
2018-12-23T04:34:47.916Z,1.30
2018-12-23T04:38:52.609Z,1.30
2018-12-23T04:42:57.352Z,1.50
2018-12-23T04:47:02.009Z,1.40
2018-12-23T04:51:06.720Z,1.40
2018-12-23T04:55:11.649Z,1.20
2018-12-23T04:59:16.386Z,1.20
2018-12-23T05:03:21.026Z,1.20
2018-12-23T05:07:25.743Z,1.30
2018-12-23T05:11:30.540Z,1.40
2018-12-23T05:15:35.603Z,1.13
2018-12-23T05:19:40.326Z,1.13
2018-12-23T05:23:45.001Z,1.13
2018-12-23T05:27:49.722Z,1.00
2018-12-23T05:31:54.431Z,1.00
2018-12-23T05:35:59.164Z,1.10
2018-12-23T05:40:03.818Z,1.00
2018-12-23T05:44:08.527Z,1.00
2018-12-23T05:48:13.231Z,1.30
2018-12-23T05:52:17.941Z,1.17
2018-12-23T05:56:22.652Z,1.40
2018-12-23T06:00:27.295Z,1.50
2018-12-23T06:04:31.978Z,1.27
2018-12-23T06:08:36.662Z,1.50
2018-12-23T06:12:41.372Z,1.60
2018-12-23T06:16:46.049Z,1.30
2018-12-23T06:20:50.716Z,1.40
2018-12-23T06:24:55.437Z,1.30
2018-12-23T06:29:00.201Z,1.33
2018-12-23T06:33:04.932Z,1.40
2018-12-23T06:37:10.427Z,1.57
2018-12-23T06:41:16.130Z,1.50
2018-12-23T06:45:20.802Z,1.40
2018-12-23T06:49:25.523Z,1.27
2018-12-23T06:53:30.174Z,1.40
2018-12-23T06:57:34.913Z,1.33
2018-12-23T07:01:39.646Z,1.10
2018-12-23T07:05:44.683Z,1.13
2018-12-23T07:09:49.428Z,1.00
2018-12-23T07:13:54.119Z,1.03
2018-12-23T07:17:58.774Z,1.00
2018-12-23T07:22:03.537Z,1.17
2018-12-23T07:26:08.239Z,1.10
2018-12-23T07:30:12.934Z,1.50
2018-12-23T07:34:17.650Z,1.10
2018-12-23T07:38:22.359Z,1.00
2018-12-23T07:42:27.076Z,1.03
2018-12-23T07:46:31.785Z,0.90
2018-12-23T07:50:36.505Z,1.20
2018-12-23T07:54:41.214Z,1.23
2018-12-23T07:58:45.909Z,1.30
2018-12-23T08:02:50.706Z,1.03
2018-12-23T08:06:55.412Z,1.27
2018-12-23T08:11:00.114Z,1.00
2018-12-23T08:15:04.772Z,1.03
2018-12-23T08:19:09.464Z,1.20
2018-12-23T08:23:14.170Z,1.00
2018-12-23T08:27:18.862Z,1.03
2018-12-23T08:31:23.583Z,1.00
2018-12-23T08:35:28.216Z,0.93
2018-12-23T08:39:32.924Z,1.07
2018-12-23T08:43:37.639Z,1.03
2018-12-23T08:47:42.389Z,1.00
2018-12-23T08:51:47.072Z,1.00
2018-12-23T08:55:52.208Z,0.93
2018-12-23T08:59:56.918Z,0.90
2018-12-23T09:04:01.661Z,1.00
2018-12-23T09:12:43.097Z,0.93
2018-12-23T09:16:47.855Z,0.67
2018-12-23T09:20:52.511Z,0.83
2018-12-23T09:24:57.248Z,0.70
2018-12-23T09:29:01.965Z,0.70
2018-12-23T09:33:06.663Z,0.60
2018-12-23T09:37:11.380Z,0.73
2018-12-23T09:41:16.093Z,0.80
2018-12-23T09:45:20.777Z,1.00
2018-12-23T09:49:25.579Z,0.83
2018-12-23T09:53:30.256Z,0.90
2018-12-23T09:57:35.035Z,0.80
2018-12-23T10:01:39.752Z,0.80
2018-12-23T10:05:44.429Z,0.90
2018-12-23T10:09:49.175Z,0.77
2018-12-23T10:13:53.914Z,0.80
2018-12-23T10:17:58.626Z,0.90
2018-12-23T10:22:03.318Z,0.90
2018-12-23T10:26:08.023Z,0.90
2018-12-23T10:30:12.719Z,0.80
2018-12-23T10:34:17.420Z,0.90
2018-12-23T10:38:42.417Z,0.90
2018-12-23T10:42:47.207Z,0.80
2018-12-23T10:46:51.923Z,0.87
2018-12-23T10:50:56.577Z,1.00
2018-12-23T10:55:01.268Z,0.90
2018-12-23T10:59:06.423Z,0.90
2018-12-23T11:03:11.126Z,0.90
2018-12-23T11:07:15.826Z,1.30
2018-12-23T11:11:20.587Z,1.00
2018-12-23T11:15:25.326Z,1.00
2018-12-23T11:19:30.048Z,1.10
2018-12-23T11:23:35.219Z,0.90
2018-12-23T11:27:39.911Z,1.17
2018-12-23T11:31:44.605Z,1.23
2018-12-23T11:35:49.350Z,1.10
2018-12-23T11:39:54.062Z,1.30
2018-12-23T11:43:58.734Z,1.10
2018-12-23T11:48:03.436Z,1.40
2018-12-23T11:52:08.140Z,1.30
2018-12-23T11:56:12.861Z,1.20
2018-12-23T12:00:17.567Z,1.33
2018-12-23T12:04:22.279Z,1.40
2018-12-23T12:08:27.157Z,1.30
2018-12-23T12:12:31.851Z,1.30
2018-12-23T12:16:36.583Z,1.20
2018-12-23T12:20:41.289Z,1.10
2018-12-23T12:24:46.025Z,1.30
2018-12-23T12:28:50.738Z,1.10
2018-12-23T12:32:55.384Z,1.00
2018-12-23T12:37:00.128Z,1.20
2018-12-23T12:41:04.862Z,1.00
2018-12-23T12:45:09.614Z,1.03
2018-12-23T12:49:14.312Z,1.00
2018-12-23T12:53:18.973Z,1.20
2018-12-23T12:57:23.780Z,1.10
2018-12-23T13:01:28.466Z,1.20
2018-12-23T13:05:33.187Z,1.30
2018-12-23T13:09:37.838Z,1.30
2018-12-23T13:13:42.542Z,1.30
2018-12-23T13:17:47.448Z,1.40
2018-12-23T13:21:52.212Z,1.43
2018-12-23T13:25:56.927Z,1.37
2018-12-23T13:30:01.683Z,1.50
2018-12-23T13:34:06.415Z,1.10
2018-12-23T13:38:11.076Z,1.30
2018-12-23T13:42:53.622Z,1.10
2018-12-23T13:47:36.427Z,1.53
2018-12-23T13:52:18.948Z,1.40
2018-12-23T13:57:01.491Z,1.40
2018-12-23T14:01:31.232Z,1.40
2018-12-23T14:06:13.721Z,1.47
2018-12-23T14:10:56.276Z,1.30
2018-12-23T14:15:00.952Z,1.20
2018-12-23T14:19:05.703Z,1.30
2018-12-23T14:23:10.398Z,1.40
2018-12-23T14:27:15.224Z,1.67
2018-12-23T14:31:19.911Z,1.30
2018-12-23T14:35:24.912Z,1.27
2018-12-23T14:39:29.723Z,1.20
2018-12-23T14:43:34.433Z,1.40
2018-12-23T14:47:40.403Z,1.43
2018-12-23T14:51:45.622Z,1.60
2018-12-23T14:55:50.310Z,1.33
2018-12-23T14:59:55.042Z,1.50
2018-12-23T15:03:59.733Z,1.70
2018-12-23T15:08:04.476Z,1.60
2018-12-23T15:12:09.209Z,1.50
2018-12-23T15:16:13.874Z,1.70
2018-12-23T15:20:18.587Z,1.60
2018-12-23T15:24:23.339Z,1.50
2018-12-23T15:28:27.993Z,1.77
2018-12-23T15:32:32.737Z,1.50
2018-12-23T15:36:37.489Z,1.60
2018-12-23T15:40:42.245Z,1.70
2018-12-23T15:44:47.281Z,1.77
2018-12-23T15:48:52.198Z,1.53
2018-12-23T15:52:56.936Z,1.53
2018-12-23T15:57:01.658Z,1.40
2018-12-23T16:01:06.393Z,1.63
2018-12-23T16:05:11.111Z,1.80
2018-12-23T16:09:15.793Z,1.80
2018-12-23T16:13:20.506Z,1.70
2018-12-23T16:17:25.223Z,1.73
2018-12-23T16:21:29.888Z,1.47
2018-12-23T16:25:34.622Z,1.60
2018-12-23T16:29:39.305Z,1.53
2018-12-23T16:33:44.097Z,1.40
2018-12-23T16:37:49.111Z,1.43
2018-12-23T16:41:53.801Z,1.87
2018-12-23T16:45:58.532Z,1.70
2018-12-23T16:50:03.717Z,1.60
2018-12-23T16:54:08.355Z,1.60
2018-12-23T16:58:13.092Z,1.70
2018-12-23T17:02:17.786Z,1.77
2018-12-23T17:06:22.518Z,2.00
2018-12-23T17:10:27.254Z,1.77
2018-12-23T17:14:31.999Z,1.97
2018-12-23T17:18:36.711Z,1.30
2018-12-23T17:22:41.415Z,1.73
2018-12-23T17:26:46.149Z,1.70
2018-12-23T17:30:51.000Z,1.80
2018-12-23T17:34:55.672Z,1.63
2018-12-23T17:39:00.400Z,2.13
2018-12-23T17:43:05.130Z,2.17
2018-12-23T17:47:09.852Z,1.90
2018-12-23T17:51:14.612Z,2.00
2018-12-23T17:55:19.348Z,2.43
2018-12-23T17:59:24.098Z,1.80
2018-12-23T18:03:28.872Z,1.90
2018-12-23T18:07:33.611Z,2.53
2018-12-23T18:11:38.348Z,2.40
2018-12-23T18:15:43.140Z,1.80
2018-12-23T18:19:47.878Z,2.23
2018-12-23T18:23:52.618Z,1.83
2018-12-23T18:27:57.296Z,2.53
2018-12-23T18:32:02.021Z,2.50
2018-12-23T18:36:06.745Z,2.00
2018-12-23T18:40:11.525Z,1.83
2018-12-23T18:44:16.306Z,2.00
2018-12-23T18:48:20.979Z,2.30
2018-12-23T18:52:25.728Z,2.77
2018-12-23T18:57:06.911Z,2.40
2018-12-23T19:01:11.956Z,2.60
2018-12-23T19:05:16.733Z,2.50
2018-12-23T19:09:59.299Z,2.20
2018-12-23T19:14:41.834Z,2.20
2018-12-23T19:19:24.392Z,2.10
2018-12-23T19:23:55.310Z,1.77
2018-12-23T19:28:32.250Z,1.53
2018-12-23T19:33:18.153Z,1.90
2018-12-23T19:38:00.779Z,2.00
2018-12-23T19:42:43.368Z,1.80
2018-12-23T19:47:25.896Z,1.70
2018-12-23T19:52:08.476Z,1.93
2018-12-23T19:56:51.026Z,1.60
2018-12-23T20:01:18.878Z,1.40
2018-12-23T20:06:01.476Z,1.50
2018-12-23T20:10:44.007Z,1.40
2018-12-23T20:15:26.602Z,1.10
2018-12-23T20:19:53.716Z,1.30
2018-12-23T20:24:36.297Z,1.23
2018-12-23T20:29:18.871Z,1.10
2018-12-23T20:34:02.626Z,1.03
2018-12-23T20:38:34.800Z,1.30
2018-12-23T20:43:17.372Z,1.10
2018-12-23T20:48:00.056Z,0.70
2018-12-23T20:52:33.806Z,0.70
2018-12-23T20:57:10.636Z,0.90
2018-12-23T21:01:53.244Z,0.80
2018-12-23T21:06:35.844Z,1.10
2018-12-23T21:11:18.427Z,1.20
2018-12-23T21:16:01.313Z,1.00
2018-12-23T21:20:44.607Z,0.90
2018-12-23T21:25:27.250Z,1.00
2018-12-23T21:30:09.851Z,1.20
2018-12-23T21:34:52.451Z,1.50
2018-12-23T21:39:34.923Z,1.40
2018-12-23T21:44:17.456Z,1.87
2018-12-23T21:49:00.044Z,1.47
2018-12-23T21:53:42.599Z,1.80
2018-12-23T21:57:57.593Z,2.63
2018-12-23T22:02:40.082Z,3.13
2018-12-23T22:07:22.621Z,2.97
2018-12-23T22:11:50.970Z,2.90
2018-12-23T22:20:39.781Z,2.37
2018-12-23T22:24:44.487Z,2.27
2018-12-23T22:28:49.229Z,2.30
2018-12-23T22:32:53.906Z,2.30
2018-12-23T22:36:58.658Z,2.50
2018-12-23T22:41:07.466Z,2.50
2018-12-23T22:45:12.146Z,1.90
2018-12-23T22:49:16.862Z,2.47
2018-12-23T22:53:21.577Z,2.53
2018-12-23T22:57:26.297Z,2.10
2018-12-23T23:01:30.973Z,2.10
2018-12-23T23:05:35.712Z,1.90
2018-12-23T23:09:40.422Z,1.50
2018-12-23T23:13:45.090Z,1.90
2018-12-23T23:17:49.828Z,1.63
2018-12-23T23:21:54.543Z,2.13
2018-12-23T23:25:59.291Z,1.93
2018-12-23T23:34:47.891Z,2.13
2018-12-23T23:43:16.191Z,2.00
2018-12-23T23:47:20.876Z,2.27
2018-12-23T23:51:25.588Z,2.13
2018-12-23T23:55:30.307Z,2.20
2018-12-23T23:59:34.959Z,2.50
